createdAt,value
2023-01-29T00:00:52.492Z,100049.7
2023-01-29T00:01:56.732Z,100047.02
2023-01-29T00:03:01.129Z,100054.23
2023-01-29T00:04:05.311Z,100052.03
2023-01-29T00:05:28.567Z,100046.36
2023-01-29T00:06:32.783Z,100049.11
2023-01-29T00:07:36.895Z,100052.72
2023-01-29T00:08:41.013Z,100048.2
2023-01-29T00:09:45.449Z,100049.8
2023-01-29T00:10:49.589Z,100049.21
2023-01-29T00:11:53.688Z,100050.66
2023-01-29T00:12:57.824Z,100045.53
2023-01-29T00:14:01.945Z,100046.7
2023-01-29T00:15:06.057Z,100043.2
2023-01-29T00:16:10.192Z,100049.96
2023-01-29T00:17:14.511Z,100049.96
2023-01-29T00:18:18.735Z,100056.34
2023-01-29T00:19:22.857Z,100051.94
2023-01-29T00:20:27.007Z,100052.59
2023-01-29T00:21:31.176Z,100061.55
2023-01-29T00:22:35.518Z,100054.1
2023-01-29T00:23:39.646Z,100062.72
2023-01-29T00:24:43.754Z,100062.41
2023-01-29T00:25:47.905Z,100067
2023-01-29T00:26:52.090Z,100072.36
2023-01-29T00:27:56.235Z,100065.83
2023-01-29T00:29:00.354Z,100066.86
2023-01-29T00:30:04.534Z,100060.5
2023-01-29T00:31:08.988Z,100070.87
2023-01-29T00:32:13.485Z,100060.5
2023-01-29T00:33:17.790Z,100065.27
2023-01-29T00:34:21.929Z,100056.89
2023-01-29T00:35:26.052Z,100056.89
2023-01-29T00:36:30.249Z,100065.09
2023-01-29T00:37:34.407Z,100056.14
2023-01-29T00:38:38.534Z,100063.45
2023-01-29T00:39:49.045Z,100066.44
2023-01-29T00:40:53.171Z,100061
2023-01-29T00:41:57.309Z,100054.31
2023-01-29T00:43:01.472Z,100060.25
2023-01-29T00:44:05.614Z,100065.7
2023-01-29T00:45:09.756Z,100066.8
2023-01-29T00:46:13.981Z,100060.75
2023-01-29T00:47:18.222Z,100065.62
2023-01-29T00:48:22.359Z,100066.55
2023-01-29T00:49:26.753Z,100065.38
2023-01-29T00:50:30.962Z,100069.71
2023-01-29T00:51:35.111Z,100062.05
2023-01-29T00:52:39.246Z,100066.31
2023-01-29T00:53:43.408Z,100071.56
2023-01-29T00:54:47.545Z,100067.05
2023-01-29T00:55:51.685Z,100072
2023-01-29T00:56:55.839Z,100071.41
2023-01-29T00:57:59.964Z,100072.82
2023-01-29T00:59:04.142Z,100072
2023-01-29T01:00:08.274Z,100074.77
2023-01-29T01:01:12.506Z,100077.93
2023-01-29T01:02:16.862Z,100073.67
2023-01-29T01:03:21.079Z,100071.84
2023-01-29T01:04:25.196Z,100067.73
2023-01-29T01:05:29.351Z,100068.08
2023-01-29T01:06:33.492Z,100066.91
2023-01-29T01:07:37.616Z,100063.47
2023-01-29T01:08:41.724Z,100068.52
2023-01-29T01:09:45.839Z,100069.92
2023-01-29T01:10:49.985Z,100069.07
2023-01-29T01:11:54.124Z,100064.5
2023-01-29T01:12:58.249Z,100064.98
2023-01-29T01:14:02.383Z,100067.59
2023-01-29T01:15:06.552Z,100075.93
2023-01-29T01:16:10.779Z,100074.18
2023-01-29T01:17:15.025Z,100080.05
2023-01-29T01:18:19.180Z,100079.62
2023-01-29T01:19:23.294Z,100065.24
2023-01-29T01:20:27.479Z,100079.8
2023-01-29T01:21:31.614Z,100073.63
2023-01-29T01:22:35.867Z,100076.7
2023-01-29T01:23:39.994Z,100065.83
2023-01-29T01:24:44.135Z,100069.02
2023-01-29T01:25:48.430Z,100076.22
2023-01-29T01:26:52.543Z,100077.29
2023-01-29T01:27:56.760Z,100079.55
2023-01-29T01:29:00.867Z,100078.28
2023-01-29T01:30:04.963Z,100082.39
2023-01-29T01:31:09.526Z,100079.57
2023-01-29T01:32:13.893Z,100084.31
2023-01-29T01:33:18.068Z,100083.32
2023-01-29T01:34:22.212Z,100086.51
2023-01-29T01:35:26.404Z,100086.51
2023-01-29T01:36:30.563Z,100079.63
2023-01-29T01:37:34.719Z,100086.16
2023-01-29T01:38:38.852Z,100075.38
2023-01-29T01:39:42.980Z,100074.23
2023-01-29T01:40:47.180Z,100082.41
2023-01-29T01:41:51.333Z,100077.73
2023-01-29T01:42:55.485Z,100083.75
2023-01-29T01:43:59.681Z,100084.94
2023-01-29T01:45:03.789Z,100092.36
2023-01-29T01:46:08.084Z,100087.68
2023-01-29T01:47:12.239Z,100092.87
2023-01-29T01:48:16.365Z,100092.72
2023-01-29T01:49:20.529Z,100096.05
2023-01-29T01:50:24.641Z,100089.31
2023-01-29T01:51:28.801Z,100095.7
2023-01-29T01:52:32.915Z,100092.5
2023-01-29T01:53:37.045Z,100087.98
2023-01-29T01:54:41.167Z,100095.8
2023-01-29T01:55:45.274Z,100091.45
2023-01-29T01:56:49.376Z,100099.41
2023-01-29T01:57:54.026Z,100095.39
2023-01-29T01:58:58.607Z,100092.27
2023-01-29T02:00:02.771Z,100092.92
2023-01-29T02:01:07.040Z,100095.88
2023-01-29T02:02:11.325Z,100097.34
2023-01-29T02:03:15.534Z,100091.75
2023-01-29T02:04:19.659Z,100090.85
2023-01-29T02:05:23.799Z,100084.73
2023-01-29T02:06:27.924Z,100084.39
2023-01-29T02:07:32.045Z,100080.48
2023-01-29T02:08:36.173Z,100088.24
2023-01-29T02:09:40.290Z,100081.23
2023-01-29T02:10:44.433Z,100071.69
2023-01-29T02:11:48.759Z,100071.02
2023-01-29T02:12:52.870Z,100060.06
2023-01-29T02:13:56.974Z,100059.17
2023-01-29T02:15:01.116Z,100055.73
2023-01-29T02:16:05.287Z,100056.83
2023-01-29T02:17:09.551Z,100054.25
2023-01-29T02:18:13.806Z,100064.61
2023-01-29T02:19:17.913Z,100059.77
2023-01-29T02:20:22.017Z,100055.67
2023-01-29T02:21:26.242Z,100051.92
2023-01-29T02:22:30.378Z,100051.14
2023-01-29T02:23:34.586Z,100050.63
2023-01-29T02:24:39.113Z,100047.81
2023-01-29T02:25:43.359Z,100052.99
2023-01-29T02:26:47.549Z,100049.05
2023-01-29T02:27:51.676Z,100048.22
2023-01-29T02:28:55.872Z,100041.7
2023-01-29T02:30:00.003Z,100040.46
2023-01-29T02:31:04.278Z,100035.94
2023-01-29T02:32:08.491Z,100040.36
2023-01-29T02:33:12.622Z,100032.84
2023-01-29T02:34:16.748Z,100023.41
2023-01-29T02:35:20.859Z,100030.34
2023-01-29T02:36:24.973Z,100026.08
2023-01-29T02:37:29.090Z,100021.81
2023-01-29T02:38:33.223Z,100026.49
2023-01-29T02:39:37.428Z,100034.1
2023-01-29T02:40:41.740Z,100037.87
2023-01-29T02:41:45.879Z,100038.48
2023-01-29T02:42:50.479Z,100039.05
2023-01-29T02:43:54.594Z,100043.73
2023-01-29T02:44:58.728Z,100038.38
2023-01-29T02:46:02.986Z,100039.3
2023-01-29T02:47:07.274Z,100039.88
2023-01-29T02:48:11.408Z,100030.78
2023-01-29T02:49:15.536Z,100031.44
2023-01-29T02:50:20.087Z,100023.42
2023-01-29T02:51:24.198Z,100025.59
2023-01-29T02:52:28.324Z,100030.02
2023-01-29T02:53:32.462Z,100032.37
2023-01-29T02:54:36.578Z,100034.38
2023-01-29T02:55:40.700Z,100030.12
2023-01-29T02:56:44.815Z,100040.05
2023-01-29T02:57:48.922Z,100037.98
2023-01-29T02:58:53.061Z,100030.28
2023-01-29T02:59:57.178Z,100028.78
2023-01-29T03:01:01.322Z,100036.39
2023-01-29T03:02:05.590Z,100033.78
2023-01-29T03:03:09.753Z,100029.45
2023-01-29T03:04:13.906Z,100027.7
2023-01-29T03:05:18.038Z,100036.21
2023-01-29T03:06:22.236Z,100034.46
2023-01-29T03:07:26.353Z,100028.14
2023-01-29T03:08:30.603Z,100032.2
2023-01-29T03:09:34.816Z,100024.17
2023-01-29T03:10:38.946Z,100032.7
2023-01-29T03:11:43.423Z,100035.3
2023-01-29T03:12:47.541Z,100038.23
2023-01-29T03:13:51.685Z,100034.22
2023-01-29T03:14:55.865Z,100036.78
2023-01-29T03:16:00.015Z,100043.03
2023-01-29T03:17:04.133Z,100045.55
2023-01-29T03:18:08.247Z,100047.12
2023-01-29T03:19:12.729Z,100051.56
2023-01-29T03:20:17.624Z,100050.37
2023-01-29T03:21:22.501Z,100050.37
2023-01-29T03:22:26.623Z,100063.53
2023-01-29T03:23:30.732Z,100059.83
2023-01-29T03:24:34.942Z,100064.85
2023-01-29T03:25:39.047Z,100069.02
2023-01-29T03:26:43.165Z,100060.16
2023-01-29T03:27:47.291Z,100062.48
2023-01-29T03:28:51.428Z,100060.22
2023-01-29T03:29:55.607Z,100050.34
2023-01-29T03:30:59.813Z,100058.59
2023-01-29T03:32:04.258Z,100061.93
2023-01-29T03:33:08.466Z,100065.77
2023-01-29T03:34:12.581Z,100064.92
2023-01-29T03:35:16.755Z,100064
2023-01-29T03:36:20.889Z,100066.48
2023-01-29T03:37:25.004Z,100069.27
2023-01-29T03:38:29.119Z,100067.32
2023-01-29T03:39:33.236Z,100068.39
2023-01-29T03:40:37.359Z,100067.87
2023-01-29T03:41:41.558Z,100069.64
2023-01-29T03:42:45.729Z,100076.23
2023-01-29T03:43:49.845Z,100072.97
2023-01-29T03:44:53.971Z,100069.44
2023-01-29T03:45:58.249Z,100073.21
2023-01-29T03:47:02.528Z,100068.78
2023-01-29T03:48:06.685Z,100075.59
2023-01-29T03:49:10.797Z,100070.83
2023-01-29T03:50:15.664Z,100080.86
2023-01-29T03:51:20.385Z,100075.67
2023-01-29T03:52:24.529Z,100075.42
2023-01-29T03:53:28.907Z,100072.19
2023-01-29T03:54:33.102Z,100071.43
2023-01-29T03:55:37.278Z,100068.19
2023-01-29T03:56:41.474Z,100064.59
2023-01-29T03:57:45.602Z,100066.41
2023-01-29T03:58:49.764Z,100053.05
2023-01-29T03:59:53.887Z,100056.07
2023-01-29T04:00:58.037Z,100054.48
2023-01-29T04:02:02.150Z,100048.81
2023-01-29T04:03:06.264Z,100047.3
2023-01-29T04:04:10.528Z,100051.9
2023-01-29T04:05:14.734Z,100049.32
2023-01-29T04:06:18.884Z,100049.32
2023-01-29T04:07:23.080Z,100044.3
2023-01-29T04:08:27.200Z,100048.56
2023-01-29T04:09:31.351Z,100046.89
2023-01-29T04:10:35.483Z,100048.55
2023-01-29T04:11:39.611Z,100052.32
2023-01-29T04:12:43.824Z,100040.34
2023-01-29T04:13:48.337Z,100048.45
2023-01-29T04:14:52.492Z,100046.43
2023-01-29T04:15:56.607Z,100034.8
2023-01-29T04:17:00.755Z,100040.3
2023-01-29T04:18:04.876Z,100036.19
2023-01-29T04:19:09.071Z,100038.62
2023-01-29T04:20:13.315Z,100033.69
2023-01-29T04:21:18.063Z,100040.49
2023-01-29T04:22:22.247Z,100029.37
2023-01-29T04:23:26.372Z,100030.54
2023-01-29T04:24:30.708Z,100027.94
2023-01-29T04:25:34.882Z,100023.98
2023-01-29T04:26:39.025Z,100022.62
2023-01-29T04:27:43.153Z,100030.45
2023-01-29T04:28:47.301Z,100030.14
2023-01-29T04:29:51.452Z,100029.87
2023-01-29T04:30:55.906Z,100024.44
2023-01-29T04:32:00.293Z,100026.02
2023-01-29T04:33:04.746Z,100019.87
2023-01-29T04:34:08.862Z,100026.47
2023-01-29T04:35:13.004Z,100026.87
2023-01-29T04:36:17.112Z,100026.64
2023-01-29T04:37:21.228Z,100036.52
2023-01-29T04:38:25.366Z,100039.38
2023-01-29T04:39:29.478Z,100030.92
2023-01-29T04:40:33.598Z,100030.54
2023-01-29T04:41:37.732Z,100036.62
2023-01-29T04:42:41.851Z,100023.67
2023-01-29T04:43:46.000Z,100020.68
2023-01-29T04:44:50.131Z,100017.56
2023-01-29T04:45:54.255Z,100015.39
2023-01-29T04:46:58.442Z,100007.27
2023-01-29T04:48:02.574Z,100002.73
2023-01-29T04:49:06.733Z,100003.48
2023-01-29T04:50:10.863Z,100002.22
2023-01-29T04:51:14.993Z,100002.77
2023-01-29T04:52:19.137Z,99998.52
2023-01-29T04:53:23.357Z,100000.41
2023-01-29T04:54:27.572Z,100001.06
2023-01-29T04:55:31.685Z,100004.39
2023-01-29T04:56:35.787Z,99996.02
2023-01-29T04:57:39.998Z,100000.68
2023-01-29T04:58:44.103Z,99991.41
2023-01-29T04:59:48.204Z,99997.01
2023-01-29T05:00:52.291Z,99992.13
2023-01-29T05:01:56.485Z,99996.84
2023-01-29T05:03:00.815Z,100002.53
2023-01-29T05:04:05.120Z,100000.55
2023-01-29T05:05:09.276Z,100005.73
2023-01-29T05:06:13.405Z,100002.47
2023-01-29T05:07:17.579Z,99991.55
2023-01-29T05:08:21.686Z,99998.52
2023-01-29T05:09:25.896Z,100000.85
2023-01-29T05:10:32.859Z,99998
2023-01-29T05:11:37.154Z,99994.67
2023-01-29T05:12:41.249Z,99995.73
2023-01-29T05:13:45.359Z,99988.01
2023-01-29T05:14:49.474Z,99987.42
2023-01-29T05:15:53.624Z,99985.5
2023-01-29T05:16:57.779Z,99984.3
2023-01-29T05:18:01.942Z,99984.37
2023-01-29T05:19:06.156Z,99972.21
2023-01-29T05:20:10.265Z,99983.34
2023-01-29T05:21:14.379Z,99984.5
2023-01-29T05:22:18.518Z,99993.33
2023-01-29T05:23:22.618Z,99989
2023-01-29T05:24:26.852Z,99991.16
2023-01-29T05:25:31.113Z,99984.88
2023-01-29T05:26:35.391Z,99992.53
2023-01-29T05:27:39.639Z,99993.87
2023-01-29T05:28:43.753Z,99992.49
2023-01-29T05:29:47.866Z,99998.61
2023-01-29T05:30:52.065Z,99995.1
2023-01-29T05:31:56.351Z,99997.58
2023-01-29T05:33:00.639Z,99994.78
2023-01-29T05:34:04.773Z,100008.66
2023-01-29T05:35:08.888Z,99996.6
2023-01-29T05:36:13.033Z,100002.09
2023-01-29T05:37:17.152Z,100002.44
2023-01-29T05:38:21.274Z,100003.91
2023-01-29T05:39:25.434Z,100003.91
2023-01-29T05:40:29.547Z,100012.02
2023-01-29T05:41:33.741Z,100014.59
2023-01-29T05:42:37.845Z,100012.86
2023-01-29T05:43:41.951Z,100021.25
2023-01-29T05:44:46.135Z,100017.41
2023-01-29T05:45:50.303Z,100018.42
2023-01-29T05:46:54.613Z,100022.66
2023-01-29T05:47:58.782Z,100023.2
2023-01-29T05:49:02.917Z,100020.69
2023-01-29T05:50:07.036Z,100025.59
2023-01-29T05:51:15.364Z,100028.2
2023-01-29T05:52:19.523Z,100027.8
2023-01-29T05:53:23.652Z,100025.9
2023-01-29T05:54:27.776Z,100025.59
2023-01-29T05:55:31.899Z,100034.18
2023-01-29T05:56:36.033Z,100031.73
2023-01-29T05:57:40.228Z,100032.28
2023-01-29T05:58:44.350Z,100031.38
2023-01-29T05:59:48.509Z,100036.47
2023-01-29T06:00:52.722Z,100033.68
2023-01-29T06:01:56.993Z,100039.69
2023-01-29T06:03:01.348Z,100043.64
2023-01-29T06:04:05.642Z,100043.13
2023-01-29T06:05:09.808Z,100034.44
2023-01-29T06:06:13.956Z,100039.9
2023-01-29T06:07:18.095Z,100044.52
2023-01-29T06:08:22.347Z,100046.62
2023-01-29T06:09:26.460Z,100047.23
2023-01-29T06:10:30.611Z,100042.56
2023-01-29T06:11:34.724Z,100058.04
2023-01-29T06:12:38.862Z,100042.46
2023-01-29T06:13:43.018Z,100049.69
2023-01-29T06:14:47.138Z,100046.83
2023-01-29T06:15:51.389Z,100041.95
2023-01-29T06:16:55.579Z,100047.27
2023-01-29T06:17:59.710Z,100050.23
2023-01-29T06:19:03.886Z,100044.14
2023-01-29T06:20:08.020Z,100055.97
2023-01-29T06:21:12.163Z,100059.48
2023-01-29T06:22:16.299Z,100052.72
2023-01-29T06:23:20.420Z,100061.69
2023-01-29T06:24:24.674Z,100060.45
2023-01-29T06:25:28.922Z,100054.92
2023-01-29T06:26:33.056Z,100050.59
2023-01-29T06:27:37.227Z,100053.39
2023-01-29T06:28:41.367Z,100058.61
2023-01-29T06:29:45.564Z,100053.02
2023-01-29T06:30:49.769Z,100054.12
2023-01-29T06:31:54.211Z,100062.61
2023-01-29T06:32:58.553Z,100062.12
2023-01-29T06:34:02.708Z,100060.63
2023-01-29T06:35:06.862Z,100069.28
2023-01-29T06:36:10.981Z,100056.98
2023-01-29T06:37:15.116Z,100065.19
2023-01-29T06:38:19.523Z,100057.77
2023-01-29T06:39:23.765Z,100061.03
2023-01-29T06:40:27.918Z,100076.7
2023-01-29T06:41:32.087Z,100074.71
2023-01-29T06:42:36.249Z,100074.89
2023-01-29T06:43:40.413Z,100074.23
2023-01-29T06:44:44.531Z,100075.44
2023-01-29T06:45:48.763Z,100070.59
2023-01-29T06:46:52.947Z,100071.45
2023-01-29T06:47:57.056Z,100075.22
2023-01-29T06:49:04.307Z,100069.94
2023-01-29T06:50:08.433Z,100064.61
2023-01-29T06:51:12.575Z,100070.63
2023-01-29T06:52:16.737Z,100079.17
2023-01-29T06:53:20.868Z,100074.05
2023-01-29T06:54:25.022Z,100074.22
2023-01-29T06:55:29.174Z,100078.73
2023-01-29T06:56:33.343Z,100070.89
2023-01-29T06:57:37.483Z,100083.53
2023-01-29T06:58:41.628Z,100075.59
2023-01-29T06:59:45.740Z,100079.27
2023-01-29T07:00:49.916Z,100077.69
2023-01-29T07:01:54.312Z,100074.19
2023-01-29T07:02:58.441Z,100077.03
2023-01-29T07:04:02.569Z,100078.03
2023-01-29T07:05:06.685Z,100075.04
2023-01-29T07:06:10.793Z,100072.42
2023-01-29T07:07:14.939Z,100073.05
2023-01-29T07:08:19.065Z,100068.13
2023-01-29T07:09:23.172Z,100067.2
2023-01-29T07:10:27.324Z,100067.88
2023-01-29T07:11:31.439Z,100076.41
2023-01-29T07:12:35.616Z,100080.25
2023-01-29T07:13:39.740Z,100072.48
2023-01-29T07:14:43.861Z,100073.17
2023-01-29T07:15:47.986Z,100077.94
2023-01-29T07:16:52.114Z,100085.7
2023-01-29T07:17:56.258Z,100085.78
2023-01-29T07:19:00.398Z,100085.09
2023-01-29T07:20:04.536Z,100089.84
2023-01-29T07:21:08.742Z,100089.64
2023-01-29T07:22:12.852Z,100083.88
2023-01-29T07:23:16.987Z,100081.27
2023-01-29T07:24:21.238Z,100086.5
2023-01-29T07:25:25.428Z,100081.8
2023-01-29T07:26:29.577Z,100086.63
2023-01-29T07:27:33.714Z,100079.83
2023-01-29T07:28:37.868Z,100090.94
2023-01-29T07:29:42.001Z,100080.89
2023-01-29T07:30:46.131Z,100091.07
2023-01-29T07:31:50.533Z,100083.41
2023-01-29T07:32:54.864Z,100079.31
2023-01-29T07:33:59.014Z,100086.73
2023-01-29T07:35:03.134Z,100074.16
2023-01-29T07:36:07.245Z,100081.37
2023-01-29T07:37:11.379Z,100073.64
2023-01-29T07:38:15.506Z,100084.84
2023-01-29T07:39:19.626Z,100085.88
2023-01-29T07:40:23.723Z,100084.05
2023-01-29T07:41:27.867Z,100090.89
2023-01-29T07:42:31.992Z,100090.14
2023-01-29T07:43:36.142Z,100091.66
2023-01-29T07:44:40.457Z,100094.54
2023-01-29T07:45:44.650Z,100099.73
2023-01-29T07:46:48.849Z,100099.01
2023-01-29T07:47:52.968Z,100098.25
2023-01-29T07:48:57.106Z,100091.24
2023-01-29T07:50:01.241Z,100093.41
2023-01-29T07:51:05.374Z,100094.61
2023-01-29T07:52:09.504Z,100089.59
2023-01-29T07:53:13.623Z,100088.22
2023-01-29T07:54:17.734Z,100102.27
2023-01-29T07:55:21.929Z,100094.44
2023-01-29T07:56:26.069Z,100103.64
2023-01-29T07:57:30.192Z,100102.47
2023-01-29T07:58:36.877Z,100104.81
2023-01-29T07:59:41.041Z,100104.57
2023-01-29T08:00:45.244Z,100109.27
2023-01-29T08:01:49.480Z,100112.37
2023-01-29T08:02:53.638Z,100107.86
2023-01-29T08:03:57.773Z,100110.47
2023-01-29T08:05:01.900Z,100115.91
2023-01-29T08:06:06.032Z,100110.64
2023-01-29T08:07:10.149Z,100114.59
2023-01-29T08:08:14.282Z,100118.68
2023-01-29T08:09:18.427Z,100114.17
2023-01-29T08:10:22.572Z,100121.55
2023-01-29T08:11:26.724Z,100114.44
2023-01-29T08:12:30.898Z,100124.06
2023-01-29T08:13:35.034Z,100121.8
2023-01-29T08:14:39.169Z,100119.31
2023-01-29T08:15:43.313Z,100126.67
2023-01-29T08:16:47.617Z,100126.59
2023-01-29T08:25:09.675Z,100136.16
2023-01-29T08:26:13.805Z,100148.05
2023-01-29T08:27:17.948Z,100146.22
2023-01-29T08:28:22.060Z,100151.21
2023-01-29T08:29:26.205Z,100154.5
2023-01-29T08:30:30.387Z,100153.74
2023-01-29T08:31:34.709Z,100152.91
2023-01-29T08:32:38.868Z,100152.09
2023-01-29T08:33:43.012Z,100157.2
2023-01-29T08:34:47.148Z,100152.52
2023-01-29T08:35:51.509Z,100160.22
2023-01-29T08:36:55.690Z,100157.12
2023-01-29T08:37:59.886Z,100152.1
2023-01-29T08:39:04.036Z,100156.78
2023-01-29T08:40:08.174Z,100165.67
2023-01-29T08:41:12.283Z,100155.54
2023-01-29T08:42:16.433Z,100168.01
2023-01-29T08:43:20.564Z,100163.23
2023-01-29T08:44:24.698Z,100167.77
2023-01-29T08:45:35.084Z,100157.83
2023-01-29T08:46:39.322Z,100153.98
2023-01-29T08:47:43.440Z,100154.8
2023-01-29T08:48:47.570Z,100148.44
2023-01-29T08:50:08.192Z,100151.05
2023-01-29T08:51:12.387Z,100151.05
2023-01-29T08:52:16.549Z,100145.2
2023-01-29T08:53:20.656Z,100148.54
2023-01-29T08:54:24.786Z,100146.38
2023-01-29T08:55:28.952Z,100143.77
2023-01-29T08:56:33.088Z,100137.58
2023-01-29T08:57:37.195Z,100143.45
2023-01-29T08:58:41.308Z,100152.83
2023-01-29T08:59:45.429Z,100148.39
2023-01-29T09:00:49.613Z,100147.37
2023-01-29T09:01:53.850Z,100149.73
2023-01-29T09:02:58.001Z,100144.95
2023-01-29T09:04:02.098Z,100139.25
2023-01-29T09:05:06.226Z,100133.23
2023-01-29T09:06:10.371Z,100134.84
2023-01-29T09:07:14.506Z,100139.11
2023-01-29T09:08:18.618Z,100140.55
2023-01-29T09:09:22.781Z,100130.99
2023-01-29T09:10:26.941Z,100136.18
2023-01-29T09:11:31.095Z,100132.27
2023-01-29T09:12:35.284Z,100130.44
2023-01-29T09:13:39.415Z,100125.39
2023-01-29T09:14:43.527Z,100124.47
2023-01-29T09:15:47.645Z,100127.92
2023-01-29T09:16:52.291Z,100122.81
2023-01-29T09:17:57.131Z,100133.02
2023-01-29T09:19:01.278Z,100123.33
2023-01-29T09:20:05.392Z,100114.45
2023-01-29T09:21:09.499Z,100129.67
2023-01-29T09:22:13.610Z,100130.25
2023-01-29T09:23:17.736Z,100126.5
2023-01-29T09:24:21.864Z,100136.22
2023-01-29T09:25:25.977Z,100134.88
2023-01-29T09:26:30.256Z,100130.69
2023-01-29T09:27:34.473Z,100132.7
2023-01-29T09:28:38.600Z,100132.53
2023-01-29T09:29:42.742Z,100132.63
2023-01-29T09:30:47.115Z,100124.67
2023-01-29T09:31:51.714Z,100117.23
2023-01-29T09:32:56.358Z,100115.16
2023-01-29T09:34:00.500Z,100122.69
2023-01-29T09:35:04.608Z,100118.74
2023-01-29T09:36:08.759Z,100125.78
2023-01-29T09:37:12.875Z,100123.2
2023-01-29T09:38:17.034Z,100117.91
2023-01-29T09:39:21.166Z,100113.39
2023-01-29T09:40:25.309Z,100104.89
2023-01-29T09:41:29.449Z,100110.81
2023-01-29T09:42:36.059Z,100115.5
2023-01-29T09:43:40.239Z,100109.48
2023-01-29T09:44:44.382Z,100101.87
2023-01-29T09:45:48.528Z,100097.7
2023-01-29T09:46:52.741Z,100104.2
2023-01-29T09:47:56.910Z,100102.96
2023-01-29T09:49:01.070Z,100095.77
2023-01-29T09:50:05.221Z,100090.32
2023-01-29T09:51:09.354Z,100084.83
2023-01-29T09:52:13.465Z,100089.5
2023-01-29T09:53:17.583Z,100085.65
2023-01-29T09:54:22.021Z,100085.75
2023-01-29T09:55:26.631Z,100079.39
2023-01-29T09:56:30.792Z,100073.31
2023-01-29T09:57:34.957Z,100077.88
2023-01-29T09:58:39.076Z,100071.11
2023-01-29T09:59:43.191Z,100069.55
2023-01-29T10:00:47.393Z,100072.28
2023-01-29T10:01:51.812Z,100067.44
2023-01-29T10:02:56.211Z,100066.95
2023-01-29T10:04:00.324Z,100067.2
2023-01-29T10:05:04.444Z,100075.22
2023-01-29T10:06:08.563Z,100069.62
2023-01-29T10:07:12.679Z,100066.11
2023-01-29T10:08:16.796Z,100071.67
2023-01-29T10:09:20.908Z,100067.45
2023-01-29T10:10:25.123Z,100066.52
2023-01-29T10:11:29.446Z,100064.26
2023-01-29T10:12:33.625Z,100069.27
2023-01-29T10:13:37.746Z,100061.91
2023-01-29T10:14:41.869Z,100059.59
2023-01-29T10:15:45.992Z,100058.49
2023-01-29T10:16:50.237Z,100067.52
2023-01-29T10:17:54.408Z,100062.51
2023-01-29T10:18:58.693Z,100059.59
2023-01-29T10:20:02.915Z,100058.73
2023-01-29T10:21:07.041Z,100060.74
2023-01-29T10:22:11.179Z,100060.08
2023-01-29T10:23:15.306Z,100054
2023-01-29T10:24:19.414Z,100064.09
2023-01-29T10:25:23.547Z,100058.84
2023-01-29T10:26:27.738Z,100060.25
2023-01-29T10:27:31.959Z,100055.57
2023-01-29T10:28:36.083Z,100058.18
2023-01-29T10:29:40.222Z,100054.59
2023-01-29T10:30:44.567Z,100053.92
2023-01-29T10:31:49.349Z,100063.7
2023-01-29T10:32:53.715Z,100058.92
2023-01-29T10:34:03.695Z,100046.64
2023-01-29T10:35:07.821Z,100045.22
2023-01-29T10:36:11.949Z,100046.07
2023-01-29T10:37:16.114Z,100044.32
2023-01-29T10:38:20.238Z,100037.97
2023-01-29T10:39:24.439Z,100035.44
2023-01-29T10:40:28.671Z,100035.85
2023-01-29T10:41:32.801Z,100028.6
2023-01-29T10:42:36.919Z,100022.27
2023-01-29T10:43:41.069Z,100019.91
2023-01-29T10:44:45.205Z,100012.65
2023-01-29T10:45:49.530Z,100015.06
2023-01-29T10:46:53.656Z,100011.22
2023-01-29T10:47:57.843Z,100004.12
2023-01-29T10:49:01.966Z,100002.37
2023-01-29T10:50:06.071Z,99998.93
2023-01-29T10:51:10.177Z,99998.23
2023-01-29T10:52:14.309Z,99998.73
2023-01-29T10:53:18.420Z,99996.81
2023-01-29T10:54:22.515Z,99991.61
2023-01-29T10:55:26.634Z,99987.12
2023-01-29T10:56:30.740Z,99987.94
2023-01-29T10:57:34.829Z,99979.5
2023-01-29T10:58:38.936Z,99978.41
2023-01-29T10:59:43.071Z,99966.38
2023-01-29T11:00:47.153Z,99969.87
2023-01-29T11:01:51.407Z,99968.95
2023-01-29T11:02:56.042Z,99965.96
2023-01-29T11:04:00.291Z,99961.95
2023-01-29T11:05:04.505Z,99962.6
2023-01-29T11:06:08.625Z,99951.14
2023-01-29T11:07:12.730Z,99962.92
2023-01-29T11:08:16.818Z,99954.81
2023-01-29T11:09:20.931Z,99954.23
2023-01-29T11:10:25.100Z,99956.08
2023-01-29T11:11:29.236Z,99947.63
2023-01-29T11:12:33.362Z,99951.48
2023-01-29T11:13:37.519Z,99934.11
2023-01-29T11:14:41.610Z,99929.69
2023-01-29T11:15:45.699Z,99939.22
2023-01-29T11:16:50.092Z,99930.02
2023-01-29T11:17:54.199Z,99930.95
2023-01-29T11:18:58.329Z,99923.94
2023-01-29T11:20:02.467Z,99925.37
2023-01-29T11:21:06.560Z,99929.22
2023-01-29T11:22:10.647Z,99922.13
2023-01-29T11:23:14.774Z,99914.44
2023-01-29T11:24:18.894Z,99914.53
2023-01-29T11:25:23.084Z,99914.44
2023-01-29T11:26:27.224Z,99916.02
2023-01-29T11:27:31.400Z,99917
2023-01-29T11:28:35.522Z,99915.77
2023-01-29T11:29:39.657Z,99919.37
2023-01-29T11:30:43.875Z,99913.27
2023-01-29T11:31:48.234Z,99913
2023-01-29T11:32:52.453Z,99909.23
2023-01-29T11:33:56.551Z,99910.13
2023-01-29T11:35:00.757Z,99910.64
2023-01-29T11:36:04.874Z,99907.31
2023-01-29T11:37:08.993Z,99904.39
2023-01-29T11:38:13.099Z,99899.14
2023-01-29T11:39:17.304Z,99904.49
2023-01-29T11:40:21.483Z,99906.48
2023-01-29T11:41:25.588Z,99902.13
2023-01-29T11:42:29.686Z,99894.94
2023-01-29T11:43:34.491Z,99895
2023-01-29T11:44:38.723Z,99896.83
2023-01-29T11:45:42.831Z,99888.73
2023-01-29T11:46:47.248Z,99889.56
2023-01-29T11:47:51.584Z,99891.05
2023-01-29T11:49:14.205Z,99885.69
2023-01-29T11:50:24.155Z,99888.27
2023-01-29T11:51:28.367Z,99885.42
2023-01-29T11:52:32.573Z,99879.47
2023-01-29T11:53:36.735Z,99873.8
2023-01-29T11:54:40.898Z,99873.5
2023-01-29T11:55:51.803Z,99871.09
2023-01-29T11:56:55.900Z,99860.98
2023-01-29T11:58:00.410Z,99864.82
2023-01-29T11:59:04.715Z,99867.67
2023-01-29T12:00:08.840Z,99864.75
2023-01-29T12:01:13.209Z,99871.34
2023-01-29T12:02:17.310Z,99864.55
2023-01-29T12:03:23.877Z,99868.77
2023-01-29T12:04:28.947Z,99858.58
2023-01-29T12:05:33.122Z,99856.04
2023-01-29T12:06:37.250Z,99858.2
2023-01-29T12:07:41.354Z,99853.2
2023-01-29T12:08:45.465Z,99858.44
2023-01-29T12:09:49.585Z,99850.11
2023-01-29T12:10:53.687Z,99853.16
2023-01-29T12:11:57.794Z,99852.48
2023-01-29T12:13:01.903Z,99845.27
2023-01-29T12:14:06.029Z,99842.94
2023-01-29T12:15:10.122Z,99849.42
2023-01-29T12:16:14.459Z,99849.01
2023-01-29T12:17:18.664Z,99853.27
2023-01-29T12:18:22.776Z,99847.95
2023-01-29T12:19:26.885Z,99831.41
2023-01-29T12:20:31.145Z,99848.25
2023-01-29T12:21:35.629Z,99846.44
2023-01-29T12:22:39.755Z,99849.55
2023-01-29T12:23:43.880Z,99850.61
2023-01-29T12:24:47.988Z,99851.27
2023-01-29T12:25:52.084Z,99853.25
2023-01-29T12:26:56.191Z,99852.25
2023-01-29T12:28:00.306Z,99857.38